Terminal Aerodrome Forecast
Issued by NWS Cleveland, OH

Home | Current Version | Previous Version | Text Only | Print | Product List | Glossary On
Versions: 1 2 3 4 5 6 7 8 9 10 11 12 13 14 15 16 17 18 19 20 21
000
FTUS41 KCLE 221130
TAFTOL
TAF
KTOL 221130Z 2212/2312 26010KT P6SM BKN045
     FM221400 26013G20KT P6SM FEW040 SCT250
     FM222200 25009KT P6SM SCT250
     FM230800 20006KT P6SM SCT250=

USA.gov is the U.S. government's official web portal to all federal, state and local government web resources and services.